KUNV/SCE METAR and TAF weather

Enter ICAO airport designator
Station Type Date Time Source
KUNV METAR 2020/01/21 09:36 UTC NOAA

KUNV 210936Z AUTO 00000KT 10SM CLR M11/M14 A3041 RMK AO2 T11101143


Station Type Date Time Source
KUNV Decoded METAR 2020/01/21 09:36 UTC NOAA

State College, University Park Airport, PA, United States (KUNV) 40-51N 077-51W
Jan 21, 2020 - 04:36 AM EST / 2020.01.21 0936 UTC
Wind: Calm:0
Visibility: 10 mile(s):0
Sky conditions: clear
Temperature: 12.2 F (-11.0 C)
Dew Point: 6.3 F (-14.3 C)
Relative Humidity: 76%
Pressure (altimeter): 30.41 in. Hg (1029 hPa)
ob: KUNV 210936Z AUTO 00000KT 10SM CLR M11/M14 A3041 RMK AO2 T11101143
cycle: 9

Station Type Date Time Source
KUNV TAF 2020/01/21 09:15 UTC NOAA

TAF
AMD KUNV 210913Z 2109/2206 00000KT P6SM SKC
FM211900 30008KT P6SM SKC
FM220000 28006KT P6SM SKC

Example: see airport list